Time;durP1;ratioP1;P1;durP2;ratioP2;P2;SDS_P1;SDS_P2;PMS_P1;PMS_P2;Temp;Humidity;BMP_temperature;BMP_pressure;BME280_temperature;BME280_humidity;BME280_pressure;Samples;Min_cycle;Max_cycle;Signal;HPM_P1;HPM_P2
2022/08/20 00:00:54;;;;;;;11.23;10.83;;;22.60;31.30;;;;;;5076030;28;20529;-77
2022/08/20 00:03:26;;;;;;;10.70;10.37;;;22.40;32.00;;;;;;5074530;28;20563;-77
2022/08/20 00:06:04;;;;;;;11.17;10.67;;;22.40;32.00;;;;;;5074520;28;20425;-77
2022/08/20 00:08:30;;;;;;;11.73;11.23;;;22.20;32.50;;;;;;5073962;28;20400;-76
2022/08/20 00:10:58;;;;;;;11.60;11.20;;;22.20;32.70;;;;;;5074230;28;20931;-76
2022/08/20 00:13:37;;;;;;;10.90;10.60;;;22.20;33.10;;;;;;5074190;28;20191;-76
2022/08/20 00:16:04;;;;;;;11.60;11.20;;;22.20;33.20;;;;;;5072379;28;20406;-76
2022/08/20 00:18:30;;;;;;;11.20;10.80;;;22.20;33.10;;;;;;5073631;28;20418;-77
2022/08/20 00:20:56;;;;;;;12.07;11.67;;;22.10;33.40;;;;;;5073348;28;20918;-77
2022/08/20 00:23:23;;;;;;;11.90;11.50;;;22.00;33.70;;;;;;5073464;28;20270;-76
2022/08/20 00:25:50;;;;;;;11.83;11.43;;;22.00;34.10;;;;;;5073208;28;20467;-77
2022/08/20 00:28:16;;;;;;;11.50;11.20;;;21.90;34.40;;;;;;5073562;28;20415;-77
2022/08/20 00:30:44;;;;;;;12.30;11.60;;;21.80;34.60;;;;;;5073310;28;20413;-77
2022/08/20 00:33:15;;;;;;;11.87;11.50;;;21.80;35.50;;;;;;5072038;28;20561;-77
2022/08/20 00:35:45;;;;;;;11.70;11.40;;;21.80;34.90;;;;;;5073791;28;20946;-77
2022/08/20 00:38:11;;;;;;;11.97;11.57;;;21.80;34.90;;;;;;5071724;28;20995;-77
2022/08/20 00:40:43;;;;;;;11.97;11.57;;;21.70;35.00;;;;;;5071543;28;20457;-77
2022/08/20 00:43:41;;;;;;;12.00;11.60;;;21.70;35.10;;;;;;5072976;28;20192;-77
2022/08/20 00:46:21;;;;;;;11.47;11.10;;;21.70;35.20;;;;;;5073739;28;20958;-77
2022/08/20 00:48:50;;;;;;;11.20;10.90;;;21.70;35.10;;;;;;5074875;28;20520;-79
2022/08/20 00:51:26;;;;;;;11.80;11.40;;;21.70;35.20;;;;;;5072695;28;20483;-77
2022/08/20 00:53:53;;;;;;;12.13;11.73;;;21.70;35.40;;;;;;5072949;28;20519;-77
2022/08/20 00:56:19;;;;;;;11.23;10.93;;;21.70;35.10;;;;;;5072554;28;20465;-77
2022/08/20 00:58:45;;;;;;;11.57;11.07;;;21.70;35.40;;;;;;5073094;28;20836;-77
2022/08/20 01:01:14;;;;;;;11.80;11.40;;;21.80;35.00;;;;;;5072438;28;20433;-77
2022/08/20 01:03:41;;;;;;;11.87;11.47;;;21.80;34.90;;;;;;5072525;28;20429;-77
2022/08/20 01:06:10;;;;;;;11.80;11.40;;;21.80;34.90;;;;;;5072686;28;20590;-77
2022/08/20 01:08:37;;;;;;;11.60;11.30;;;21.80;34.70;;;;;;5072945;28;20478;-77
2022/08/20 01:11:15;;;;;;;11.37;11.07;;;21.80;34.70;;;;;;5072716;28;20496;-77
2022/08/20 01:13:44;;;;;;;11.57;11.23;;;21.80;34.80;;;;;;5072639;28;20524;-76
2022/08/20 01:16:17;;;;;;;11.50;11.10;;;21.80;35.10;;;;;;5072373;28;20449;-77
2022/08/20 01:18:46;;;;;;;11.50;11.10;;;21.70;35.40;;;;;;5072834;28;20470;-77
2022/08/20 01:21:12;;;;;;;11.53;11.03;;;21.80;35.10;;;;;;5071208;28;20425;-77
2022/08/20 01:23:44;;;;;;;11.30;11.00;;;21.80;35.10;;;;;;5071283;28;20433;-77
2022/08/20 01:26:22;;;;;;;11.20;10.90;;;21.70;35.20;;;;;;5071103;28;20455;-77
2022/08/20 01:29:06;;;;;;;12.00;11.60;;;21.70;35.40;;;;;;5071985;28;20405;-76
2022/08/20 01:31:34;;;;;;;11.20;10.90;;;21.70;35.40;;;;;;5073004;28;20478;-76
2022/08/20 01:34:03;;;;;;;11.57;11.20;;;21.70;35.30;;;;;;5072634;28;20457;-77
2022/08/20 01:36:52;;;;;;;11.87;11.27;;;21.70;35.30;;;;;;5072644;28;20507;-77
2022/08/20 01:39:26;;;;;;;11.20;10.80;;;21.70;35.20;;;;;;5072464;28;20406;-77
2022/08/20 01:41:59;;;;;;;12.10;11.60;;;21.80;35.30;;;;;;5071003;28;20428;-77
2022/08/20 01:44:26;;;;;;;11.50;11.10;;;21.70;35.40;;;;;;5072446;28;20483;-77
2022/08/20 01:46:56;;;;;;;11.30;11.00;;;21.70;35.60;;;;;;5072702;28;21036;-77
2022/08/20 01:49:29;;;;;;;11.40;11.10;;;21.70;35.70;;;;;;5072258;28;20413;-77
2022/08/20 01:51:59;;;;;;;11.90;11.50;;;21.70;35.60;;;;;;5070904;28;20418;-77
2022/08/20 01:54:25;;;;;;;11.73;11.33;;;21.70;35.80;;;;;;5071011;28;20469;-77
2022/08/20 01:57:05;;;;;;;11.83;11.30;;;21.70;35.70;;;;;;5072261;28;20460;-77
2022/08/20 01:59:31;;;;;;;11.70;11.30;;;21.70;35.70;;;;;;5072305;28;20422;-77
2022/08/20 02:01:58;;;;;;;11.73;11.33;;;21.70;35.70;;;;;;5072039;28;20409;-77
2022/08/20 02:04:25;;;;;;;12.13;11.73;;;21.70;35.70;;;;;;5070902;28;20542;-77
2022/08/20 02:06:57;;;;;;;12.50;12.00;;;21.70;35.60;;;;;;5072087;28;20424;-77
2022/08/20 02:09:25;;;;;;;12.20;11.60;;;21.70;35.20;;;;;;5072207;28;20414;-77
2022/08/20 02:11:52;;;;;;;11.80;11.40;;;21.80;35.50;;;;;;5070562;28;20435;-77
2022/08/20 02:14:18;;;;;;;12.17;11.77;;;21.80;35.20;;;;;;5075215;28;20440;-78
2022/08/20 02:16:49;;;;;;;11.80;11.40;;;21.90;35.30;;;;;;5074657;28;20465;-77
2022/08/20 02:19:21;;;;;;;11.30;10.90;;;21.80;35.20;;;;;;5076122;28;20408;-77
2022/08/20 02:21:54;;;;;;;12.10;11.30;;;21.80;35.30;;;;;;5074851;28;20434;-77
2022/08/20 02:24:20;;;;;;;11.03;10.70;;;21.80;35.20;;;;;;5074645;28;20444;-77
2022/08/20 02:26:46;;;;;;;11.50;11.10;;;21.90;35.50;;;;;;5075953;28;20422;-77
2022/08/20 02:29:13;;;;;;;12.13;11.73;;;21.90;35.10;;;;;;5074610;28;20274;-77
2022/08/20 02:31:43;;;;;;;11.80;11.40;;;21.90;36.00;;;;;;5075801;28;20410;-77
2022/08/20 02:34:10;;;;;;;12.67;12.17;;;21.90;35.00;;;;;;5075683;28;20449;-76
2022/08/20 02:36:37;;;;;;;12.23;11.80;;;21.90;35.80;;;;;;5075991;28;20825;-76
2022/08/20 02:39:06;;;;;;;12.13;11.63;;;21.90;35.00;;;;;;5076035;28;20414;-76
2022/08/20 02:41:32;;;;;;;12.03;11.63;;;22.00;35.10;;;;;;5075070;28;20769;-76
2022/08/20 02:43:57;;;;;;;11.10;10.80;;;22.10;34.60;;;;;;5076738;28;20472;-76
2022/08/20 02:46:23;;;;;;;12.70;12.20;;;22.20;34.30;;;;;;5082239;28;20902;-77
2022/08/20 02:48:48;;;;;;;11.97;11.47;;;22.20;33.90;;;;;;5086544;28;20187;-76
2022/08/20 02:51:14;;;;;;;12.60;12.20;;;22.20;33.90;;;;;;5091946;28;20175;-75
2022/08/20 02:53:40;;;;;;;11.70;11.40;;;22.30;34.00;;;;;;5097480;28;20190;-76
2022/08/20 02:56:08;;;;;;;12.20;11.80;;;22.30;33.90;;;;;;5095797;28;20171;-76
2022/08/20 02:58:34;;;;;;;12.00;11.60;;;22.30;33.70;;;;;;5096588;28;20401;-77
2022/08/20 03:01:02;;;;;;;12.27;11.87;;;22.40;33.50;;;;;;5094308;28;20425;-76
2022/08/20 03:03:28;;;;;;;12.00;11.60;;;22.30;33.70;;;;;;5093910;28;20670;-76
2022/08/20 03:05:56;;;;;;;12.20;11.80;;;22.40;33.50;;;;;;5079682;28;20444;-77
2022/08/20 03:08:23;;;;;;;12.00;11.60;;;22.30;33.70;;;;;;5076765;28;20646;-77
2022/08/20 03:10:49;;;;;;;11.33;10.93;;;22.20;34.20;;;;;;5077243;28;20437;-77
2022/08/20 03:13:15;;;;;;;12.70;12.17;;;22.20;34.20;;;;;;5076679;28;20460;-76
2022/08/20 03:15:45;;;;;;;12.20;11.80;;;22.30;33.80;;;;;;5076223;28;21028;-77
2022/08/20 03:18:11;;;;;;;12.03;11.53;;;22.20;34.00;;;;;;5069614;28;20457;-77
2022/08/20 03:20:38;;;;;;;12.70;12.10;;;22.30;34.20;;;;;;5055899;28;20418;-77
2022/08/20 03:23:04;;;;;;;12.17;11.77;;;22.30;34.10;;;;;;5055081;28;20426;-77
2022/08/20 03:25:30;;;;;;;12.57;12.17;;;22.40;33.90;;;;;;5054416;28;20494;-77
2022/08/20 03:27:56;;;;;;;12.20;11.80;;;22.30;34.10;;;;;;5053765;28;20427;-78
2022/08/20 03:30:25;;;;;;;12.20;11.80;;;22.20;34.20;;;;;;5054565;28;20446;-77
2022/08/20 03:32:51;;;;;;;12.63;12.23;;;22.30;34.00;;;;;;5054743;28;20980;-77
2022/08/20 03:35:19;;;;;;;12.93;12.30;;;22.30;33.80;;;;;;5054468;28;20449;-77
2022/08/20 03:37:45;;;;;;;12.37;11.97;;;22.40;33.70;;;;;;5054468;28;20466;-77
2022/08/20 03:40:19;;;;;;;12.90;12.43;;;22.40;33.70;;;;;;5054092;28;20416;-77
2022/08/20 03:42:44;;;;;;;12.20;11.80;;;22.50;33.70;;;;;;5053082;28;20473;-77
2022/08/20 03:45:11;;;;;;;11.90;11.50;;;22.50;33.50;;;;;;5054217;28;20825;-77
2022/08/20 03:47:38;;;;;;;12.27;11.87;;;22.50;33.50;;;;;;5054724;28;20179;-77
2022/08/20 03:50:06;;;;;;;13.13;12.30;;;22.50;33.50;;;;;;5054335;28;20406;-77
2022/08/20 03:52:31;;;;;;;12.40;12.00;;;22.40;33.90;;;;;;5054839;28;20441;-77
2022/08/20 03:54:57;;;;;;;13.13;12.63;;;22.30;34.10;;;;;;5054584;28;20419;-77
2022/08/20 03:57:23;;;;;;;12.77;12.37;;;22.30;34.50;;;;;;5053560;28;20283;-77
2022/08/20 03:59:50;;;;;;;12.27;11.87;;;22.10;35.10;;;;;;5054607;28;20177;-77
2022/08/20 04:02:16;;;;;;;12.97;12.57;;;22.00;35.30;;;;;;5053858;28;20425;-77
2022/08/20 04:04:41;;;;;;;12.80;12.40;;;21.90;35.70;;;;;;5054233;28;20915;-77
2022/08/20 04:07:09;;;;;;;13.33;12.83;;;21.90;35.80;;;;;;5053878;28;20418;-76
2022/08/20 04:09:37;;;;;;;13.00;12.60;;;21.80;36.50;;;;;;5052757;28;20222;-76
2022/08/20 04:12:03;;;;;;;13.93;13.33;;;21.70;36.70;;;;;;5053495;28;20411;-76
2022/08/20 04:14:28;;;;;;;13.67;13.17;;;21.70;37.00;;;;;;5054081;28;20430;-76
2022/08/20 04:16:54;;;;;;;13.87;13.37;;;21.70;37.70;;;;;;5051989;28;20688;-77
2022/08/20 04:19:20;;;;;;;14.37;13.87;;;21.70;37.50;;;;;;5053737;28;20180;-76
2022/08/20 04:21:47;;;;;;;14.00;13.50;;;21.70;37.70;;;;;;5053459;28;20164;-76
2022/08/20 04:24:14;;;;;;;14.33;13.83;;;21.60;37.80;;;;;;5059868;28;20456;-76
2022/08/20 04:26:40;;;;;;;14.13;13.53;;;21.60;37.80;;;;;;5073290;28;20817;-77
2022/08/20 04:29:06;;;;;;;13.93;13.43;;;21.60;37.90;;;;;;5073688;28;20417;-76
2022/08/20 04:31:33;;;;;;;14.13;13.63;;;21.60;37.80;;;;;;5073123;28;20412;-76
2022/08/20 04:34:06;;;;;;;13.27;12.87;;;21.60;38.10;;;;;;5073265;28;20491;-76
2022/08/20 04:36:33;;;;;;;14.60;14.10;;;21.70;38.10;;;;;;5070996;28;20453;-77
2022/08/20 04:38:59;;;;;;;14.43;13.87;;;21.60;39.30;;;;;;5071809;28;20417;-77
2022/08/20 04:41:25;;;;;;;14.07;13.57;;;21.60;39.40;;;;;;5073323;28;20503;-76
2022/08/20 04:43:52;;;;;;;13.43;12.93;;;21.70;39.50;;;;;;5073344;28;20222;-77
2022/08/20 04:46:19;;;;;;;13.63;13.00;;;21.90;39.60;;;;;;5071900;28;20657;-76
2022/08/20 04:48:45;;;;;;;13.73;13.13;;;21.90;39.50;;;;;;5072832;28;20504;-75
2022/08/20 04:51:13;;;;;;;13.80;13.30;;;22.00;39.40;;;;;;5071937;28;21013;-75
2022/08/20 04:53:40;;;;;;;13.80;13.30;;;22.00;40.00;;;;;;5076025;28;20977;-76
2022/08/20 04:56:06;;;;;;;15.00;14.20;;;21.90;40.20;;;;;;5074075;28;20536;-76
2022/08/20 04:58:37;;;;;;;14.50;14.00;;;22.00;40.60;;;;;;5072752;28;20501;-76
2022/08/20 05:01:10;;;;;;;14.83;14.23;;;22.00;40.10;;;;;;5071470;28;21006;-76
2022/08/20 05:03:37;;;;;;;15.30;14.50;;;22.00;40.20;;;;;;5072673;28;20441;-76
2022/08/20 05:06:08;;;;;;;15.13;14.63;;;21.90;39.20;;;;;;5071633;28;20425;-76
2022/08/20 05:08:34;;;;;;;15.00;14.43;;;21.80;40.80;;;;;;5068787;28;20483;-77
2022/08/20 05:11:01;;;;;;;15.50;14.90;;;21.70;41.60;;;;;;5054802;28;20494;-77
2022/08/20 05:13:27;;;;;;;16.47;15.10;;;21.60;41.70;;;;;;5053070;28;20513;-78
2022/08/20 05:15:53;;;;;;;15.23;14.63;;;21.50;41.70;;;;;;5053198;28;20417;-78
2022/08/20 05:18:22;;;;;;;15.30;14.70;;;21.50;41.70;;;;;;5051431;28;20995;-78
2022/08/20 05:20:48;;;;;;;14.97;14.33;;;21.60;41.70;;;;;;5052587;28;20438;-77
2022/08/20 05:23:15;;;;;;;15.60;14.90;;;21.60;41.70;;;;;;5053061;28;20430;-77
2022/08/20 05:25:43;;;;;;;15.00;14.40;;;21.70;41.80;;;;;;5052432;28;20415;-77
2022/08/20 05:28:29;;;;;;;15.50;14.90;;;21.80;40.60;;;;;;5053450;28;20419;-78
2022/08/20 05:30:54;;;;;;;14.67;14.07;;;21.90;39.70;;;;;;5052640;28;20437;-78
2022/08/20 05:33:22;;;;;;;13.67;13.17;;;21.90;39.40;;;;;;5053006;28;20462;-77
2022/08/20 05:35:49;;;;;;;15.00;14.40;;;21.60;40.30;;;;;;5051562;28;20548;-77
2022/08/20 05:38:19;;;;;;;14.53;14.03;;;21.50;41.60;;;;;;5051548;28;20462;-77
2022/08/20 05:40:46;;;;;;;14.67;13.97;;;21.40;41.60;;;;;;5052313;28;20502;-77
2022/08/20 05:43:12;;;;;;;15.37;14.67;;;21.40;41.60;;;;;;5052563;28;20800;-77
2022/08/20 05:45:39;;;;;;;15.77;15.17;;;21.30;41.50;;;;;;5051662;28;20414;-77
2022/08/20 05:48:11;;;;;;;15.10;14.60;;;21.20;41.40;;;;;;5052358;28;20452;-79
2022/08/20 05:50:38;;;;;;;15.50;14.90;;;21.10;41.70;;;;;;5055420;28;20782;-78
2022/08/20 05:53:04;;;;;;;15.03;14.03;;;21.20;41.50;;;;;;5063553;28;20488;-78
2022/08/20 05:55:30;;;;;;;16.13;15.13;;;21.20;41.70;;;;;;5070153;28;20449;-77
2022/08/20 05:57:58;;;;;;;15.40;14.80;;;21.20;41.90;;;;;;5064813;28;20455;-78
2022/08/20 06:00:24;;;;;;;15.70;15.00;;;21.20;42.00;;;;;;5057243;28;20414;-76
2022/08/20 06:05:33;;;;;;;16.03;15.43;;;21.10;42.10;;;;;;5053589;28;20472;-76
2022/08/20 06:07:59;;;;;;;15.83;15.07;;;21.10;42.00;;;;;;5052692;28;20908;-76
2022/08/20 06:10:25;;;;;;;16.00;15.33;;;21.20;42.00;;;;;;5052714;28;20270;-77
2022/08/20 06:12:52;;;;;;;15.90;15.30;;;21.20;42.00;;;;;;5052406;28;20230;-78
2022/08/20 06:15:18;;;;;;;15.07;14.47;;;21.30;41.70;;;;;;5050172;28;20183;-77
2022/08/20 06:17:43;;;;;;;15.00;14.50;;;21.30;41.50;;;;;;5050762;28;20505;-77
2022/08/20 06:20:10;;;;;;;16.00;15.20;;;21.30;41.50;;;;;;5052202;28;20418;-78
2022/08/20 06:22:36;;;;;;;15.40;14.80;;;21.30;41.40;;;;;;5052365;28;20191;-78
2022/08/20 06:25:04;;;;;;;16.23;15.53;;;21.40;41.60;;;;;;5050637;28;20437;-78
2022/08/20 06:27:29;;;;;;;15.20;14.60;;;21.50;41.60;;;;;;5052192;28;20449;-77
2022/08/20 06:29:55;;;;;;;15.57;14.97;;;21.50;41.50;;;;;;5052304;28;20410;-77
2022/08/20 06:32:23;;;;;;;15.00;14.50;;;21.70;41.00;;;;;;5051120;28;20191;-78
2022/08/20 06:34:50;;;;;;;15.10;14.50;;;21.70;40.60;;;;;;5052544;28;20185;-78
2022/08/20 06:37:19;;;;;;;15.53;14.93;;;21.70;40.30;;;;;;5052414;28;20458;-78
2022/08/20 06:39:45;;;;;;;15.63;14.93;;;21.70;40.40;;;;;;5051235;28;20418;-78
2022/08/20 06:42:11;;;;;;;15.37;14.67;;;21.70;40.40;;;;;;5050685;28;20426;-78
2022/08/20 06:44:36;;;;;;;15.63;14.93;;;21.60;40.60;;;;;;5051816;28;20187;-78
2022/08/20 06:47:03;;;;;;;15.20;14.60;;;21.60;40.80;;;;;;5050993;28;20199;-77
2022/08/20 06:49:32;;;;;;;15.00;14.40;;;21.60;40.60;;;;;;5053134;28;20183;-78
2022/08/20 06:51:58;;;;;;;15.87;15.20;;;21.60;40.80;;;;;;5051939;28;20494;-78
2022/08/20 06:54:23;;;;;;;15.90;15.20;;;21.60;40.80;;;;;;5051680;28;20473;-78
2022/08/20 06:56:49;;;;;;;15.17;14.67;;;21.70;40.80;;;;;;5053072;28;20554;-78
2022/08/20 06:59:14;;;;;;;14.97;14.37;;;21.70;40.20;;;;;;5051802;28;20522;-77
2022/08/20 07:01:40;;;;;;;15.33;14.73;;;21.80;40.00;;;;;;5056320;28;20700;-77
2022/08/20 07:04:07;;;;;;;14.90;14.30;;;21.90;39.40;;;;;;5056746;28;20221;-77
2022/08/20 07:06:32;;;;;;;15.13;14.40;;;22.00;39.00;;;;;;5056465;28;20230;-78
2022/08/20 07:08:58;;;;;;;15.87;15.17;;;22.00;38.80;;;;;;5056553;28;20410;-77
2022/08/20 07:11:24;;;;;;;15.07;14.47;;;22.10;39.00;;;;;;5054752;28;20179;-77
2022/08/20 07:13:50;;;;;;;15.50;14.90;;;22.00;38.80;;;;;;5055979;28;20445;-77
2022/08/20 07:16:15;;;;;;;15.07;14.47;;;22.10;38.70;;;;;;5054478;28;20546;-77
2022/08/20 07:18:41;;;;;;;14.70;14.20;;;22.00;39.40;;;;;;5056071;28;20168;-78
2022/08/20 07:21:07;;;;;;;15.83;14.93;;;22.00;39.70;;;;;;5056390;28;20180;-78
2022/08/20 07:23:32;;;;;;;15.70;15.10;;;21.90;39.40;;;;;;5055045;28;20196;-78
2022/08/20 07:25:58;;;;;;;15.43;14.73;;;21.80;39.40;;;;;;5055463;28;20172;-78
2022/08/20 07:28:29;;;;;;;15.33;14.73;;;21.90;39.70;;;;;;5056243;28;20168;-78
2022/08/20 07:33:40;;;;;;;15.87;15.17;;;21.80;39.90;;;;;;5058645;28;20503;-78
2022/08/20 07:36:07;;;;;;;16.30;15.50;;;21.70;40.10;;;;;;5055207;28;20597;-78
2022/08/20 07:38:34;;;;;;;14.60;14.00;;;21.70;40.20;;;;;;5055804;28;20467;-77
2022/08/20 07:41:06;;;;;;;15.67;15.07;;;21.70;40.20;;;;;;5054464;28;20455;-77
2022/08/20 07:43:32;;;;;;;16.43;15.30;;;21.80;40.00;;;;;;5053667;28;20974;-77
2022/08/20 07:46:00;;;;;;;15.37;14.70;;;21.90;39.80;;;;;;5052778;28;20796;-77
2022/08/20 07:48:29;;;;;;;15.43;14.80;;;22.00;38.70;;;;;;5052631;28;20478;-77
2022/08/20 07:50:59;;;;;;;15.30;14.70;;;22.10;38.70;;;;;;5053694;28;20421;-77
2022/08/20 07:53:26;;;;;;;15.13;14.53;;;22.10;38.40;;;;;;5057060;28;20975;-79
2022/08/20 07:55:52;;;;;;;15.10;14.40;;;22.10;38.30;;;;;;5056232;28;20859;-79
2022/08/20 07:58:21;;;;;;;15.00;14.50;;;22.10;38.50;;;;;;5056531;28;20467;-79
2022/08/20 08:00:47;;;;;;;16.00;15.30;;;22.00;38.70;;;;;;5068433;28;20779;-81
2022/08/20 08:03:13;;;;;;;15.40;14.70;;;22.10;38.50;;;;;;5084881;28;20421;-80
2022/08/20 08:05:42;;;;;;;15.10;14.50;;;22.20;38.30;;;;;;5079165;28;21105;-78
2022/08/20 08:08:09;;;;;;;15.60;14.80;;;22.20;38.20;;;;;;5074502;28;20428;-81
2022/08/20 08:10:36;;;;;;;15.00;14.30;;;22.30;37.50;;;;;;5031284;28;20450;-79
2022/08/20 08:13:05;;;;;;;14.23;13.73;;;22.40;37.00;;;;;;5018034;28;20452;-80
2022/08/20 08:15:36;;;;;;;14.73;14.20;;;22.30;37.10;;;;;;5023049;28;20992;-80
2022/08/20 08:18:07;;;;;;;14.90;14.30;;;22.30;37.10;;;;;;5033413;28;20506;-79
2022/08/20 08:20:40;;;;;;;14.67;14.07;;;22.50;37.30;;;;;;5026688;28;21023;-79
2022/08/20 08:23:10;;;;;;;14.60;14.00;;;22.50;36.60;;;;;;5028224;28;20451;-82
2022/08/20 08:25:37;;;;;;;15.37;14.47;;;22.50;36.70;;;;;;5024170;28;20451;-79
2022/08/20 08:28:04;;;;;;;14.47;13.97;;;22.60;36.50;;;;;;5020463;28;20481;-81
2022/08/20 08:30:30;;;;;;;15.20;14.60;;;22.50;36.50;;;;;;5022115;28;20537;-80
2022/08/20 08:35:44;;;;;;;14.77;14.27;;;22.70;35.90;;;;;;5021050;28;20462;-79
2022/08/20 08:38:10;;;;;;;15.27;14.60;;;22.70;35.90;;;;;;5016428;28;20460;-80
2022/08/20 08:40:36;;;;;;;15.27;14.67;;;22.70;35.60;;;;;;5016640;28;21095;-79
2022/08/20 08:43:03;;;;;;;14.53;14.03;;;22.70;35.40;;;;;;5019490;28;20863;-80
2022/08/20 08:45:37;;;;;;;14.80;14.20;;;22.80;35.20;;;;;;5024441;28;20224;-79
2022/08/20 08:48:03;;;;;;;14.67;14.07;;;22.80;35.30;;;;;;5021970;28;20585;-80
2022/08/20 08:50:32;;;;;;;14.73;14.13;;;22.90;34.70;;;;;;5029057;28;20478;-79
2022/08/20 08:53:01;;;;;;;15.10;14.50;;;22.90;34.10;;;;;;5020531;28;20463;-80
2022/08/20 08:55:29;;;;;;;15.37;14.77;;;22.90;34.00;;;;;;5020165;28;20479;-79
2022/08/20 08:57:58;;;;;;;15.67;14.37;;;23.00;33.80;;;;;;5016663;28;20465;-79
2022/08/20 09:00:27;;;;;;;14.80;14.13;;;23.00;33.60;;;;;;5017856;28;20539;-80
2022/08/20 09:02:59;;;;;;;15.10;14.40;;;23.00;33.50;;;;;;5016454;28;20814;-80
2022/08/20 09:05:33;;;;;;;15.17;14.57;;;23.10;33.60;;;;;;5016727;28;20451;-79
2022/08/20 09:08:02;;;;;;;14.60;14.10;;;23.10;33.20;;;;;;5022815;28;20452;-80
2022/08/20 09:10:27;;;;;;;14.60;14.03;;;23.00;32.50;;;;;;5024995;28;20846;-82
2022/08/20 09:12:53;;;;;;;15.10;14.50;;;23.00;32.80;;;;;;5027984;28;20485;-83
2022/08/20 09:15:20;;;;;;;14.87;14.07;;;23.00;33.20;;;;;;5024623;28;20224;-80
2022/08/20 09:17:45;;;;;;;14.37;13.67;;;23.00;32.90;;;;;;5028977;28;20228;-81
2022/08/20 09:20:11;;;;;;;14.40;13.80;;;23.10;32.90;;;;;;5023258;28;20447;-79
2022/08/20 09:22:37;;;;;;;13.70;13.20;;;23.20;32.70;;;;;;5022999;28;20702;-80
2022/08/20 09:25:07;;;;;;;14.47;13.97;;;23.20;32.70;;;;;;5017058;28;20224;-82
2022/08/20 09:27:32;;;;;;;13.90;13.40;;;23.20;32.70;;;;;;5005629;28;20478;-79
2022/08/20 09:29:58;;;;;;;13.83;13.23;;;23.20;32.70;;;;;;5008338;28;20968;-79
2022/08/20 09:32:24;;;;;;;13.90;13.40;;;23.10;32.60;;;;;;5021059;28;20754;-79
2022/08/20 09:34:55;;;;;;;13.10;12.60;;;23.10;32.60;;;;;;5005988;28;20799;-79
2022/08/20 09:37:22;;;;;;;13.50;12.90;;;23.20;32.70;;;;;;5022101;28;20466;-79
2022/08/20 09:39:49;;;;;;;13.60;13.10;;;23.20;32.50;;;;;;5022329;28;20540;-79
2022/08/20 09:42:21;;;;;;;13.27;12.77;;;23.30;32.20;;;;;;5021105;28;20546;-79
2022/08/20 09:44:47;;;;;;;12.57;12.17;;;23.30;31.50;;;;;;5006606;28;20489;-80
2022/08/20 09:47:12;;;;;;;12.53;12.00;;;23.40;30.50;;;;;;5020970;28;20476;-79
2022/08/20 09:49:39;;;;;;;12.93;12.40;;;23.40;30.70;;;;;;5019093;28;20612;-78
2022/08/20 09:52:07;;;;;;;12.60;12.10;;;23.50;30.80;;;;;;4999743;28;20274;-78
2022/08/20 09:54:35;;;;;;;12.10;11.70;;;23.60;30.20;;;;;;5028048;28;20431;-80
2022/08/20 09:57:04;;;;;;;11.80;11.40;;;23.80;30.20;;;;;;5027980;28;20510;-79
2022/08/20 09:59:32;;;;;;;12.20;11.80;;;24.00;29.90;;;;;;5023361;28;20454;-79
2022/08/20 10:01:58;;;;;;;11.67;11.23;;;24.20;29.20;;;;;;5022226;28;20570;-78
2022/08/20 10:04:23;;;;;;;11.83;11.33;;;24.50;28.10;;;;;;5023353;28;20475;-79
2022/08/20 10:06:49;;;;;;;11.40;11.00;;;24.60;27.60;;;;;;5010063;28;20228;-79
2022/08/20 10:09:15;;;;;;;11.37;11.07;;;24.60;27.20;;;;;;5026656;28;20193;-79
2022/08/20 10:11:41;;;;;;;11.90;11.50;;;24.60;27.40;;;;;;5017184;28;20426;-78
2022/08/20 10:14:07;;;;;;;12.40;12.00;;;24.50;27.50;;;;;;5022713;28;20236;-77
2022/08/20 10:16:34;;;;;;;12.40;12.00;;;24.30;28.00;;;;;;5006585;28;20561;-80
2022/08/20 10:19:00;;;;;;;13.27;12.10;;;24.30;28.40;;;;;;5041832;28;20478;-78
2022/08/20 10:21:25;;;;;;;12.33;11.83;;;24.20;28.70;;;;;;5043265;28;20435;-81
2022/08/20 10:23:51;;;;;;;12.63;12.23;;;24.10;29.60;;;;;;5050354;28;20266;-78
2022/08/20 10:26:16;;;;;;;12.80;12.30;;;24.10;30.10;;;;;;5065972;28;20391;-79
2022/08/20 10:28:43;;;;;;;11.90;11.40;;;24.00;30.70;;;;;;5062931;28;20223;-79
2022/08/20 10:31:09;;;;;;;11.20;10.90;;;23.90;30.10;;;;;;5052953;28;20235;-79
2022/08/20 10:33:36;;;;;;;11.40;11.00;;;23.90;30.10;;;;;;5045306;28;20458;-78
2022/08/20 10:36:14;;;;;;;10.90;10.60;;;23.80;30.10;;;;;;5045709;28;20525;-78
2022/08/20 10:38:41;;;;;;;11.60;11.30;;;23.90;29.70;;;;;;5048698;28;20446;-78
2022/08/20 10:41:06;;;;;;;11.80;11.40;;;24.00;29.40;;;;;;5047191;28;20442;-79
2022/08/20 10:43:32;;;;;;;11.30;11.00;;;23.90;29.80;;;;;;5047165;28;20448;-78
2022/08/20 10:45:58;;;;;;;11.17;10.87;;;23.90;29.80;;;;;;5043901;28;20223;-78
2022/08/20 10:48:24;;;;;;;11.80;11.50;;;24.20;29.70;;;;;;5043063;28;20442;-79
2022/08/20 10:50:50;;;;;;;11.40;11.10;;;24.20;29.40;;;;;;5047730;28;20215;-81
2022/08/20 10:53:16;;;;;;;11.07;10.77;;;24.30;29.60;;;;;;5051564;28;20223;-79
2022/08/20 10:55:42;;;;;;;11.20;10.87;;;24.30;30.30;;;;;;5050002;28;20503;-78
2022/08/20 10:58:08;;;;;;;11.47;11.07;;;24.30;29.80;;;;;;5048906;28;20458;-80
2022/08/20 11:00:35;;;;;;;11.60;11.20;;;24.20;29.70;;;;;;5047919;28;20836;-79
2022/08/20 11:03:01;;;;;;;10.80;10.50;;;24.10;30.20;;;;;;5047903;28;20454;-78
2022/08/20 11:05:27;;;;;;;11.60;11.20;;;23.90;30.00;;;;;;5044062;28;20457;-78
2022/08/20 11:07:53;;;;;;;11.00;10.70;;;23.80;30.20;;;;;;5044444;28;20228;-76
2022/08/20 11:10:20;;;;;;;10.80;10.50;;;23.80;30.10;;;;;;5048167;28;20458;-79
2022/08/20 11:12:46;;;;;;;11.50;11.10;;;23.80;29.90;;;;;;5049877;28;20446;-79
2022/08/20 11:15:12;;;;;;;10.60;10.30;;;23.80;29.00;;;;;;5049405;28;20454;-78
2022/08/20 11:17:41;;;;;;;10.83;10.53;;;23.70;28.40;;;;;;5047636;28;20270;-79
2022/08/20 11:20:09;;;;;;;11.17;10.87;;;23.70;28.40;;;;;;5047134;28;20295;-80
2022/08/20 11:22:34;;;;;;;11.13;10.73;;;23.70;28.50;;;;;;5026784;28;20455;-79
2022/08/20 11:25:00;;;;;;;10.17;9.87;;;23.70;28.40;;;;;;5026522;28;21043;-79
2022/08/20 11:27:31;;;;;;;11.63;11.20;;;23.70;28.40;;;;;;5027944;28;20220;-79
2022/08/20 11:29:56;;;;;;;11.10;10.80;;;23.60;28.60;;;;;;5025628;28;20224;-79
2022/08/20 11:32:22;;;;;;;10.50;10.20;;;23.60;28.90;;;;;;5027543;28;20459;-79
2022/08/20 11:34:48;;;;;;;10.90;10.60;;;23.60;28.90;;;;;;5030716;28;20263;-78
2022/08/20 11:37:15;;;;;;;10.70;10.40;;;23.70;28.70;;;;;;5032088;28;20459;-80
2022/08/20 11:39:41;;;;;;;10.70;10.40;;;23.70;28.50;;;;;;5030749;28;20768;-79
2022/08/20 11:42:07;;;;;;;10.47;10.17;;;23.70;28.40;;;;;;5031351;28;20447;-79
2022/08/20 11:44:33;;;;;;;11.03;10.63;;;23.60;28.30;;;;;;5033259;28;20841;-79
2022/08/20 11:47:03;;;;;;;10.40;10.10;;;23.60;28.50;;;;;;5031067;28;20230;-79
2022/08/20 11:49:31;;;;;;;10.70;10.40;;;23.60;28.60;;;;;;5033343;28;20227;-80
2022/08/20 11:51:57;;;;;;;10.60;10.30;;;23.70;28.70;;;;;;5035062;28;20457;-79
2022/08/20 11:54:23;;;;;;;11.00;10.70;;;23.70;29.10;;;;;;5034148;28;20522;-79
2022/08/20 11:56:48;;;;;;;10.87;10.57;;;23.60;29.70;;;;;;5037441;28;20239;-77
2022/08/20 11:59:15;;;;;;;10.93;10.63;;;23.40;30.20;;;;;;5037214;28;20451;-81
2022/08/20 12:01:41;;;;;;;11.40;11.00;;;23.50;30.40;;;;;;5062908;28;20180;-80
2022/08/20 12:04:06;;;;;;;11.00;10.60;;;23.50;30.40;;;;;;5060516;28;20493;-80
2022/08/20 12:06:32;;;;;;;10.23;9.93;;;23.40;30.60;;;;;;5059124;28;20234;-79
2022/08/20 12:08:58;;;;;;;10.37;10.07;;;23.40;29.90;;;;;;5051711;28;20697;-80
2022/08/20 12:11:24;;;;;;;10.87;10.47;;;23.30;30.50;;;;;;5047206;28;20445;-81
2022/08/20 12:13:52;;;;;;;10.93;10.53;;;23.30;30.40;;;;;;5045613;28;20458;-82
2022/08/20 12:16:18;;;;;;;10.93;10.53;;;23.40;30.20;;;;;;5042231;28;20817;-81
2022/08/20 12:18:44;;;;;;;10.77;10.40;;;23.40;29.70;;;;;;5046180;28;20254;-81
2022/08/20 12:21:13;;;;;;;10.80;10.30;;;23.50;29.60;;;;;;5044338;28;20441;-83
2022/08/20 12:23:39;;;;;;;10.47;10.17;;;23.50;29.60;;;;;;5046090;28;20739;-81
2022/08/20 12:26:04;;;;;;;10.27;9.97;;;23.50;29.90;;;;;;5044336;28;20431;-79
2022/08/20 12:28:30;;;;;;;10.60;10.30;;;23.50;29.90;;;;;;5026225;28;20220;-79
2022/08/20 12:30:57;;;;;;;10.50;10.20;;;23.50;30.00;;;;;;5027624;28;20266;-80
2022/08/20 12:33:23;;;;;;;10.80;10.40;;;23.50;30.00;;;;;;5029398;28;20805;-79
2022/08/20 12:35:49;;;;;;;10.50;10.20;;;23.50;30.80;;;;;;5026221;28;20606;-79
2022/08/20 12:38:14;;;;;;;10.73;10.17;;;23.60;31.10;;;;;;5018098;28;20530;-79